sensor_id;sensor_type;location;lat;lon;timestamp;P1;durP1;ratioP1;P2;durP2;ratioP2
934;SDS011;454;53.254;10.400;2022-08-19T04:02:14;18.67;;;14.97;;
934;SDS011;454;53.254;10.400;2022-08-19T04:04:42;17.37;;;14.47;;
934;SDS011;454;53.254;10.400;2022-08-19T04:07:09;14.43;;;13.03;;
934;SDS011;454;53.254;10.400;2022-08-19T04:09:40;15.57;;;13.40;;
934;SDS011;454;53.254;10.400;2022-08-19T04:12:07;17.17;;;13.10;;
934;SDS011;454;53.254;10.400;2022-08-19T04:14:34;15.37;;;12.67;;
934;SDS011;454;53.254;10.400;2022-08-19T04:17:01;15.17;;;12.80;;
934;SDS011;454;53.254;10.400;2022-08-19T04:19:31;16.57;;;13.20;;
934;SDS011;454;53.254;10.400;2022-08-19T04:21:58;15.57;;;11.90;;
934;SDS011;454;53.254;10.400;2022-08-19T04:24:25;14.27;;;12.80;;
934;SDS011;454;53.254;10.400;2022-08-19T04:26:53;15.87;;;11.47;;
934;SDS011;454;53.254;10.400;2022-08-19T04:29:22;14.30;;;12.80;;
934;SDS011;454;53.254;10.400;2022-08-19T04:31:51;14.23;;;12.57;;
934;SDS011;454;53.254;10.400;2022-08-19T04:34:21;14.57;;;11.80;;
934;SDS011;454;53.254;10.400;2022-08-19T04:36:51;12.37;;;11.17;;
934;SDS011;454;53.254;10.400;2022-08-19T04:39:20;14.13;;;11.90;;
934;SDS011;454;53.254;10.400;2022-08-19T04:41:47;12.80;;;11.60;;
934;SDS011;454;53.254;10.400;2022-08-19T04:44:32;13.93;;;11.60;;
934;SDS011;454;53.254;10.400;2022-08-19T04:47:00;13.17;;;11.43;;
934;SDS011;454;53.254;10.400;2022-08-19T04:49:30;16.80;;;12.70;;
934;SDS011;454;53.254;10.400;2022-08-19T04:51:59;13.20;;;11.80;;
934;SDS011;454;53.254;10.400;2022-08-19T04:54:25;17.17;;;12.43;;
934;SDS011;454;53.254;10.400;2022-08-19T04:56:53;14.53;;;12.57;;
934;SDS011;454;53.254;10.400;2022-08-19T04:59:19;14.23;;;12.80;;
934;SDS011;454;53.254;10.400;2022-08-19T05:01:47;15.73;;;12.43;;
934;SDS011;454;53.254;10.400;2022-08-19T05:04:15;13.97;;;12.47;;
934;SDS011;454;53.254;10.400;2022-08-19T05:06:44;18.77;;;13.23;;
934;SDS011;454;53.254;10.400;2022-08-19T05:09:13;19.00;;;12.83;;
934;SDS011;454;53.254;10.400;2022-08-19T05:11:41;19.30;;;13.67;;
934;SDS011;454;53.254;10.400;2022-08-19T05:14:09;15.23;;;12.13;;
934;SDS011;454;53.254;10.400;2022-08-19T05:16:37;16.97;;;14.03;;
934;SDS011;454;53.254;10.400;2022-08-19T05:19:04;17.27;;;13.83;;
934;SDS011;454;53.254;10.400;2022-08-19T05:21:49;15.20;;;13.60;;
934;SDS011;454;53.254;10.400;2022-08-19T05:24:34;17.40;;;14.03;;
934;SDS011;454;53.254;10.400;2022-08-19T05:27:02;17.00;;;13.30;;
934;SDS011;454;53.254;10.400;2022-08-19T05:29:30;14.17;;;12.77;;
934;SDS011;454;53.254;10.400;2022-08-19T05:31:59;18.27;;;11.90;;
934;SDS011;454;53.254;10.400;2022-08-19T05:34:26;21.83;;;14.23;;
934;SDS011;454;53.254;10.400;2022-08-19T05:36:54;16.27;;;12.40;;
934;SDS011;454;53.254;10.400;2022-08-19T05:39:23;19.03;;;13.60;;
934;SDS011;454;53.254;10.400;2022-08-19T05:41:54;14.53;;;12.87;;
934;SDS011;454;53.254;10.400;2022-08-19T05:44:24;18.20;;;13.50;;
934;SDS011;454;53.254;10.400;2022-08-19T05:46:51;20.20;;;14.03;;
934;SDS011;454;53.254;10.400;2022-08-19T05:49:19;17.60;;;12.83;;
934;SDS011;454;53.254;10.400;2022-08-19T05:51:48;17.00;;;12.67;;
934;SDS011;454;53.254;10.400;2022-08-19T05:54:16;17.73;;;14.23;;
934;SDS011;454;53.254;10.400;2022-08-19T05:56:43;18.83;;;14.20;;
934;SDS011;454;53.254;10.400;2022-08-19T05:59:14;16.83;;;15.03;;
934;SDS011;454;53.254;10.400;2022-08-19T06:01:42;22.73;;;15.90;;
934;SDS011;454;53.254;10.400;2022-08-19T06:04:11;17.07;;;14.27;;
934;SDS011;454;53.254;10.400;2022-08-19T06:06:38;18.43;;;13.73;;
934;SDS011;454;53.254;10.400;2022-08-19T06:09:06;18.37;;;14.70;;
934;SDS011;454;53.254;10.400;2022-08-19T06:11:36;20.07;;;14.90;;
934;SDS011;454;53.254;10.400;2022-08-19T06:14:05;17.77;;;15.00;;
934;SDS011;454;53.254;10.400;2022-08-19T06:16:36;22.30;;;16.70;;
934;SDS011;454;53.254;10.400;2022-08-19T06:19:04;18.00;;;15.13;;
934;SDS011;454;53.254;10.400;2022-08-19T06:21:32;20.77;;;16.80;;
934;SDS011;454;53.254;10.400;2022-08-19T06:24:02;22.37;;;17.20;;
934;SDS011;454;53.254;10.400;2022-08-19T06:26:30;28.90;;;20.27;;
934;SDS011;454;53.254;10.400;2022-08-19T06:28:57;29.97;;;20.77;;
934;SDS011;454;53.254;10.400;2022-08-19T06:31:25;30.60;;;21.00;;
934;SDS011;454;53.254;10.400;2022-08-19T06:33:55;30.80;;;21.13;;
934;SDS011;454;53.254;10.400;2022-08-19T06:36:23;36.20;;;23.63;;
934;SDS011;454;53.254;10.400;2022-08-19T06:38:56;33.27;;;23.03;;
934;SDS011;454;53.254;10.400;2022-08-19T06:41:24;44.97;;;27.97;;
934;SDS011;454;53.254;10.400;2022-08-19T06:43:51;42.50;;;27.40;;
934;SDS011;454;53.254;10.400;2022-08-19T06:46:18;40.30;;;25.87;;
934;SDS011;454;53.254;10.400;2022-08-19T06:48:45;40.13;;;28.07;;
934;SDS011;454;53.254;10.400;2022-08-19T06:51:14;44.17;;;27.83;;
934;SDS011;454;53.254;10.400;2022-08-19T06:53:43;40.63;;;25.23;;
934;SDS011;454;53.254;10.400;2022-08-19T06:56:11;37.13;;;25.47;;
934;SDS011;454;53.254;10.400;2022-08-19T06:58:39;38.00;;;24.67;;
934;SDS011;454;53.254;10.400;2022-08-19T07:01:06;36.30;;;23.73;;
934;SDS011;454;53.254;10.400;2022-08-19T07:03:34;41.27;;;26.90;;
934;SDS011;454;53.254;10.400;2022-08-19T07:06:02;38.47;;;24.53;;
934;SDS011;454;53.254;10.400;2022-08-19T07:08:31;38.80;;;25.40;;
934;SDS011;454;53.254;10.400;2022-08-19T07:10:59;34.87;;;23.83;;
934;SDS011;454;53.254;10.400;2022-08-19T07:13:26;33.43;;;23.80;;
934;SDS011;454;53.254;10.400;2022-08-19T07:15:52;40.00;;;25.90;;
934;SDS011;454;53.254;10.400;2022-08-19T07:18:19;38.50;;;24.60;;
934;SDS011;454;53.254;10.400;2022-08-19T07:20:47;36.07;;;24.53;;
934;SDS011;454;53.254;10.400;2022-08-19T07:23:14;36.87;;;25.30;;
934;SDS011;454;53.254;10.400;2022-08-19T07:25:42;34.70;;;26.00;;
934;SDS011;454;53.254;10.400;2022-08-19T07:28:09;41.07;;;26.23;;
934;SDS011;454;53.254;10.400;2022-08-19T07:30:36;40.73;;;25.43;;
934;SDS011;454;53.254;10.400;2022-08-19T07:33:03;44.53;;;26.63;;
934;SDS011;454;53.254;10.400;2022-08-19T07:35:30;45.30;;;27.97;;
934;SDS011;454;53.254;10.400;2022-08-19T07:37:58;43.93;;;27.60;;
934;SDS011;454;53.254;10.400;2022-08-19T07:40:27;41.60;;;26.80;;
934;SDS011;454;53.254;10.400;2022-08-19T07:42:56;44.27;;;29.10;;
934;SDS011;454;53.254;10.400;2022-08-19T07:45:24;45.57;;;27.63;;
934;SDS011;454;53.254;10.400;2022-08-19T07:47:52;41.87;;;28.23;;
934;SDS011;454;53.254;10.400;2022-08-19T07:50:19;41.83;;;28.57;;
934;SDS011;454;53.254;10.400;2022-08-19T07:52:46;41.00;;;28.80;;
934;SDS011;454;53.254;10.400;2022-08-19T07:55:15;45.93;;;28.77;;
934;SDS011;454;53.254;10.400;2022-08-19T07:57:43;53.10;;;28.47;;
934;SDS011;454;53.254;10.400;2022-08-19T08:00:12;47.77;;;28.90;;
934;SDS011;454;53.254;10.400;2022-08-19T08:02:39;48.10;;;29.70;;
934;SDS011;454;53.254;10.400;2022-08-19T08:05:07;49.83;;;30.40;;
934;SDS011;454;53.254;10.400;2022-08-19T08:07:52;45.67;;;27.43;;
934;SDS011;454;53.254;10.400;2022-08-19T08:10:36;47.50;;;30.50;;
934;SDS011;454;53.254;10.400;2022-08-19T08:13:03;50.17;;;30.97;;
934;SDS011;454;53.254;10.400;2022-08-19T08:15:31;51.83;;;29.30;;
934;SDS011;454;53.254;10.400;2022-08-19T08:17:58;49.63;;;30.77;;
934;SDS011;454;53.254;10.400;2022-08-19T08:20:25;53.60;;;33.93;;
934;SDS011;454;53.254;10.400;2022-08-19T08:22:52;49.70;;;31.70;;
934;SDS011;454;53.254;10.400;2022-08-19T08:25:36;57.40;;;32.90;;
934;SDS011;454;53.254;10.400;2022-08-19T08:28:03;50.50;;;31.10;;
934;SDS011;454;53.254;10.400;2022-08-19T08:30:33;60.63;;;32.80;;
934;SDS011;454;53.254;10.400;2022-08-19T08:33:01;50.03;;;30.93;;
934;SDS011;454;53.254;10.400;2022-08-19T08:35:29;51.77;;;29.83;;
934;SDS011;454;53.254;10.400;2022-08-19T08:37:55;52.20;;;30.93;;
934;SDS011;454;53.254;10.400;2022-08-19T08:40:28;51.63;;;30.27;;
934;SDS011;454;53.254;10.400;2022-08-19T08:43:13;62.20;;;32.07;;
934;SDS011;454;53.254;10.400;2022-08-19T08:45:49;44.60;;;28.90;;
934;SDS011;454;53.254;10.400;2022-08-19T08:48:20;51.87;;;31.77;;
934;SDS011;454;53.254;10.400;2022-08-19T08:50:50;52.10;;;29.70;;
934;SDS011;454;53.254;10.400;2022-08-19T08:53:19;52.17;;;29.10;;
934;SDS011;454;53.254;10.400;2022-08-19T08:55:47;43.90;;;28.50;;
934;SDS011;454;53.254;10.400;2022-08-19T08:58:15;50.47;;;29.87;;
934;SDS011;454;53.254;10.400;2022-08-19T09:00:46;44.23;;;28.43;;
934;SDS011;454;53.254;10.400;2022-08-19T09:03:16;51.57;;;30.53;;
934;SDS011;454;53.254;10.400;2022-08-19T09:05:46;50.80;;;29.07;;
934;SDS011;454;53.254;10.400;2022-08-19T09:08:23;43.73;;;28.20;;
934;SDS011;454;53.254;10.400;2022-08-19T09:10:58;46.20;;;28.30;;
934;SDS011;454;53.254;10.400;2022-08-19T09:13:31;44.87;;;27.13;;
934;SDS011;454;53.254;10.400;2022-08-19T09:16:10;44.97;;;27.87;;
934;SDS011;454;53.254;10.400;2022-08-19T09:18:41;42.70;;;27.83;;
934;SDS011;454;53.254;10.400;2022-08-19T09:21:11;38.30;;;25.73;;
934;SDS011;454;53.254;10.400;2022-08-19T09:23:38;39.20;;;26.60;;
934;SDS011;454;53.254;10.400;2022-08-19T09:26:06;37.50;;;25.40;;
934;SDS011;454;53.254;10.400;2022-08-19T09:28:34;41.70;;;26.40;;
934;SDS011;454;53.254;10.400;2022-08-19T09:31:02;38.10;;;24.47;;
934;SDS011;454;53.254;10.400;2022-08-19T09:33:30;41.97;;;27.37;;
934;SDS011;454;53.254;10.400;2022-08-19T09:36:04;37.10;;;24.40;;
934;SDS011;454;53.254;10.400;2022-08-19T09:38:33;32.97;;;23.67;;
934;SDS011;454;53.254;10.400;2022-08-19T09:41:03;35.20;;;24.40;;
934;SDS011;454;53.254;10.400;2022-08-19T09:43:30;30.77;;;22.90;;
934;SDS011;454;53.254;10.400;2022-08-19T09:45:58;31.77;;;22.80;;
934;SDS011;454;53.254;10.400;2022-08-19T09:48:25;31.83;;;23.50;;
934;SDS011;454;53.254;10.400;2022-08-19T09:50:53;32.83;;;22.27;;
934;SDS011;454;53.254;10.400;2022-08-19T09:53:20;31.80;;;22.57;;
934;SDS011;454;53.254;10.400;2022-08-19T09:55:48;31.63;;;22.70;;
934;SDS011;454;53.254;10.400;2022-08-19T09:58:15;31.27;;;23.20;;
934;SDS011;454;53.254;10.400;2022-08-19T10:00:42;32.27;;;22.00;;
934;SDS011;454;53.254;10.400;2022-08-19T10:03:08;33.77;;;22.53;;
934;SDS011;454;53.254;10.400;2022-08-19T10:05:36;35.17;;;24.27;;
934;SDS011;454;53.254;10.400;2022-08-19T10:08:17;36.10;;;22.70;;
934;SDS011;454;53.254;10.400;2022-08-19T10:10:46;33.50;;;23.80;;
934;SDS011;454;53.254;10.400;2022-08-19T10:13:14;36.93;;;25.77;;
934;SDS011;454;53.254;10.400;2022-08-19T10:15:43;34.30;;;25.47;;
934;SDS011;454;53.254;10.400;2022-08-19T10:18:09;35.37;;;24.33;;
934;SDS011;454;53.254;10.400;2022-08-19T10:20:37;37.67;;;25.57;;
934;SDS011;454;53.254;10.400;2022-08-19T10:23:03;35.73;;;24.10;;
934;SDS011;454;53.254;10.400;2022-08-19T10:25:32;37.67;;;25.40;;
934;SDS011;454;53.254;10.400;2022-08-19T10:27:59;37.50;;;25.50;;
934;SDS011;454;53.254;10.400;2022-08-19T10:30:26;39.73;;;26.37;;
934;SDS011;454;53.254;10.400;2022-08-19T10:32:54;38.43;;;25.53;;
934;SDS011;454;53.254;10.400;2022-08-19T10:35:20;41.20;;;27.90;;
934;SDS011;454;53.254;10.400;2022-08-19T10:37:47;38.27;;;27.23;;
934;SDS011;454;53.254;10.400;2022-08-19T10:40:14;43.37;;;27.43;;
934;SDS011;454;53.254;10.400;2022-08-19T10:42:42;44.93;;;29.23;;
934;SDS011;454;53.254;10.400;2022-08-19T10:45:09;40.60;;;28.10;;
934;SDS011;454;53.254;10.400;2022-08-19T10:47:37;42.37;;;26.80;;
934;SDS011;454;53.254;10.400;2022-08-19T10:50:04;37.60;;;25.53;;
934;SDS011;454;53.254;10.400;2022-08-19T10:52:49;36.00;;;26.63;;
934;SDS011;454;53.254;10.400;2022-08-19T10:55:17;42.63;;;27.80;;
934;SDS011;454;53.254;10.400;2022-08-19T10:58:06;37.33;;;27.23;;
934;SDS011;454;53.254;10.400;2022-08-19T11:00:37;42.20;;;27.37;;
934;SDS011;454;53.254;10.400;2022-08-19T11:03:05;39.90;;;29.07;;
934;SDS011;454;53.254;10.400;2022-08-19T11:05:32;43.40;;;29.60;;
934;SDS011;454;53.254;10.400;2022-08-19T11:07:59;37.20;;;28.93;;
934;SDS011;454;53.254;10.400;2022-08-19T11:10:25;39.37;;;26.70;;
934;SDS011;454;53.254;10.400;2022-08-19T11:12:52;44.27;;;29.87;;
934;SDS011;454;53.254;10.400;2022-08-19T11:15:21;40.00;;;27.77;;
934;SDS011;454;53.254;10.400;2022-08-19T11:17:50;45.83;;;28.97;;
934;SDS011;454;53.254;10.400;2022-08-19T11:20:19;46.60;;;28.70;;
934;SDS011;454;53.254;10.400;2022-08-19T11:22:46;44.80;;;31.50;;
934;SDS011;454;53.254;10.400;2022-08-19T11:25:13;44.27;;;30.43;;
934;SDS011;454;53.254;10.400;2022-08-19T11:27:40;38.93;;;28.83;;
934;SDS011;454;53.254;10.400;2022-08-19T11:30:08;37.17;;;28.00;;
934;SDS011;454;53.254;10.400;2022-08-19T11:32:38;37.67;;;27.60;;
934;SDS011;454;53.254;10.400;2022-08-19T11:35:05;38.97;;;26.80;;
934;SDS011;454;53.254;10.400;2022-08-19T11:37:32;39.30;;;28.03;;
934;SDS011;454;53.254;10.400;2022-08-19T11:40:02;41.90;;;29.70;;
934;SDS011;454;53.254;10.400;2022-08-19T11:42:29;41.93;;;28.53;;
934;SDS011;454;53.254;10.400;2022-08-19T11:45:13;36.53;;;27.17;;
934;SDS011;454;53.254;10.400;2022-08-19T11:47:41;41.20;;;29.80;;
934;SDS011;454;53.254;10.400;2022-08-19T11:50:09;40.53;;;30.20;;
934;SDS011;454;53.254;10.400;2022-08-19T11:52:35;40.50;;;30.40;;
934;SDS011;454;53.254;10.400;2022-08-19T11:55:02;45.03;;;31.57;;
934;SDS011;454;53.254;10.400;2022-08-19T11:57:30;42.63;;;30.97;;
934;SDS011;454;53.254;10.400;2022-08-19T11:59:57;57.47;;;33.47;;
934;SDS011;454;53.254;10.400;2022-08-19T12:02:24;52.10;;;33.93;;
934;SDS011;454;53.254;10.400;2022-08-19T12:04:52;45.00;;;33.30;;
934;SDS011;454;53.254;10.400;2022-08-19T12:07:18;40.57;;;32.53;;
934;SDS011;454;53.254;10.400;2022-08-19T12:09:45;41.87;;;32.13;;
934;SDS011;454;53.254;10.400;2022-08-19T12:12:12;39.83;;;31.10;;
934;SDS011;454;53.254;10.400;2022-08-19T12:14:39;37.97;;;31.33;;
934;SDS011;454;53.254;10.400;2022-08-19T12:17:05;40.30;;;30.60;;
934;SDS011;454;53.254;10.400;2022-08-19T12:19:35;43.23;;;32.50;;
934;SDS011;454;53.254;10.400;2022-08-19T12:22:03;36.67;;;30.47;;
934;SDS011;454;53.254;10.400;2022-08-19T12:24:32;39.60;;;31.23;;
934;SDS011;454;53.254;10.400;2022-08-19T12:26:59;35.73;;;30.67;;
934;SDS011;454;53.254;10.400;2022-08-19T12:29:27;40.27;;;31.20;;
934;SDS011;454;53.254;10.400;2022-08-19T12:31:54;38.17;;;31.93;;
934;SDS011;454;53.254;10.400;2022-08-19T12:34:25;42.83;;;32.70;;
934;SDS011;454;53.254;10.400;2022-08-19T12:36:54;36.97;;;32.30;;
934;SDS011;454;53.254;10.400;2022-08-19T12:39:23;36.20;;;30.40;;
934;SDS011;454;53.254;10.400;2022-08-19T12:41:50;39.73;;;30.60;;
934;SDS011;454;53.254;10.400;2022-08-19T12:44:17;35.33;;;30.43;;
934;SDS011;454;53.254;10.400;2022-08-19T12:46:45;34.83;;;30.77;;
934;SDS011;454;53.254;10.400;2022-08-19T12:49:13;39.57;;;33.47;;
934;SDS011;454;53.254;10.400;2022-08-19T12:51:41;40.70;;;33.60;;
934;SDS011;454;53.254;10.400;2022-08-19T12:54:08;39.67;;;33.30;;
934;SDS011;454;53.254;10.400;2022-08-19T12:56:37;39.27;;;34.30;;
934;SDS011;454;53.254;10.400;2022-08-19T12:59:04;39.90;;;32.70;;
934;SDS011;454;53.254;10.400;2022-08-19T13:01:32;38.00;;;32.33;;
934;SDS011;454;53.254;10.400;2022-08-19T13:03:59;35.23;;;30.90;;
934;SDS011;454;53.254;10.400;2022-08-19T13:06:26;34.83;;;29.80;;
934;SDS011;454;53.254;10.400;2022-08-19T13:08:53;35.10;;;31.33;;
934;SDS011;454;53.254;10.400;2022-08-19T13:11:20;30.17;;;26.97;;
934;SDS011;454;53.254;10.400;2022-08-19T13:13:51;32.43;;;28.50;;
934;SDS011;454;53.254;10.400;2022-08-19T13:16:20;33.43;;;27.60;;
934;SDS011;454;53.254;10.400;2022-08-19T13:18:47;31.67;;;28.47;;
934;SDS011;454;53.254;10.400;2022-08-19T13:21:17;32.50;;;28.60;;
934;SDS011;454;53.254;10.400;2022-08-19T13:23:46;29.90;;;26.90;;
934;SDS011;454;53.254;10.400;2022-08-19T13:26:12;32.50;;;29.10;;
934;SDS011;454;53.254;10.400;2022-08-19T13:28:40;32.50;;;28.33;;
934;SDS011;454;53.254;10.400;2022-08-19T13:31:27;30.70;;;27.60;;
934;SDS011;454;53.254;10.400;2022-08-19T13:34:14;31.77;;;28.33;;
934;SDS011;454;53.254;10.400;2022-08-19T13:36:41;32.10;;;28.13;;
934;SDS011;454;53.254;10.400;2022-08-19T13:39:09;31.17;;;27.90;;
934;SDS011;454;53.254;10.400;2022-08-19T13:41:36;29.63;;;26.70;;
934;SDS011;454;53.254;10.400;2022-08-19T13:44:04;29.57;;;26.63;;
934;SDS011;454;53.254;10.400;2022-08-19T13:46:33;30.47;;;27.40;;
934;SDS011;454;53.254;10.400;2022-08-19T13:49:00;27.97;;;25.37;;
934;SDS011;454;53.254;10.400;2022-08-19T13:51:27;28.80;;;25.93;;
934;SDS011;454;53.254;10.400;2022-08-19T13:53:53;28.30;;;25.47;;
934;SDS011;454;53.254;10.400;2022-08-19T13:56:20;27.53;;;24.73;;
934;SDS011;454;53.254;10.400;2022-08-19T13:58:47;27.30;;;24.60;;
934;SDS011;454;53.254;10.400;2022-08-19T14:01:18;28.57;;;25.37;;
934;SDS011;454;53.254;10.400;2022-08-19T14:03:47;26.73;;;24.13;;
934;SDS011;454;53.254;10.400;2022-08-19T14:06:14;26.00;;;23.57;;
934;SDS011;454;53.254;10.400;2022-08-19T14:08:41;27.37;;;24.57;;
934;SDS011;454;53.254;10.400;2022-08-19T14:11:09;26.67;;;23.97;;
934;SDS011;454;53.254;10.400;2022-08-19T14:13:36;26.60;;;23.73;;
934;SDS011;454;53.254;10.400;2022-08-19T14:16:06;26.47;;;23.73;;
934;SDS011;454;53.254;10.400;2022-08-19T14:18:34;27.30;;;24.60;;
934;SDS011;454;53.254;10.400;2022-08-19T14:21:02;26.37;;;23.87;;
934;SDS011;454;53.254;10.400;2022-08-19T14:23:29;27.23;;;24.60;;
934;SDS011;454;53.254;10.400;2022-08-19T14:26:02;25.60;;;22.90;;
934;SDS011;454;53.254;10.400;2022-08-19T14:28:29;26.07;;;23.37;;
934;SDS011;454;53.254;10.400;2022-08-19T14:30:56;24.70;;;22.10;;
934;SDS011;454;53.254;10.400;2022-08-19T14:33:23;23.63;;;21.53;;
934;SDS011;454;53.254;10.400;2022-08-19T14:35:49;25.53;;;23.00;;
934;SDS011;454;53.254;10.400;2022-08-19T14:38:18;25.63;;;23.03;;
934;SDS011;454;53.254;10.400;2022-08-19T14:40:46;24.37;;;22.17;;
934;SDS011;454;53.254;10.400;2022-08-19T14:43:14;24.30;;;22.13;;
934;SDS011;454;53.254;10.400;2022-08-19T14:45:42;24.10;;;21.77;;
934;SDS011;454;53.254;10.400;2022-08-19T14:48:09;23.70;;;21.50;;
934;SDS011;454;53.254;10.400;2022-08-19T14:50:38;24.50;;;22.00;;
934;SDS011;454;53.254;10.400;2022-08-19T14:53:05;23.70;;;21.50;;
934;SDS011;454;53.254;10.400;2022-08-19T14:55:35;27.13;;;24.50;;
934;SDS011;454;53.254;10.400;2022-08-19T14:58:02;25.80;;;23.37;;
934;SDS011;454;53.254;10.400;2022-08-19T15:00:29;26.43;;;23.83;;
934;SDS011;454;53.254;10.400;2022-08-19T15:02:56;28.03;;;25.47;;
934;SDS011;454;53.254;10.400;2022-08-19T15:05:23;25.90;;;23.40;;
934;SDS011;454;53.254;10.400;2022-08-19T15:07:52;26.80;;;24.30;;
934;SDS011;454;53.254;10.400;2022-08-19T15:10:21;27.43;;;24.67;;
934;SDS011;454;53.254;10.400;2022-08-19T15:12:50;25.40;;;22.97;;
934;SDS011;454;53.254;10.400;2022-08-19T15:15:18;28.47;;;25.57;;
934;SDS011;454;53.254;10.400;2022-08-19T15:17:46;28.20;;;25.50;;
934;SDS011;454;53.254;10.400;2022-08-19T15:20:15;26.87;;;23.97;;
934;SDS011;454;53.254;10.400;2022-08-19T15:22:42;27.43;;;24.80;;
934;SDS011;454;53.254;10.400;2022-08-19T15:25:10;23.47;;;21.13;;
934;SDS011;454;53.254;10.400;2022-08-19T15:27:39;25.03;;;22.23;;
934;SDS011;454;53.254;10.400;2022-08-19T15:30:08;24.13;;;21.77;;
934;SDS011;454;53.254;10.400;2022-08-19T15:32:37;24.83;;;22.53;;
934;SDS011;454;53.254;10.400;2022-08-19T15:35:05;25.37;;;22.97;;
934;SDS011;454;53.254;10.400;2022-08-19T15:37:32;23.67;;;21.47;;
934;SDS011;454;53.254;10.400;2022-08-19T15:39:59;24.60;;;22.30;;
934;SDS011;454;53.254;10.400;2022-08-19T15:42:26;24.50;;;22.20;;
934;SDS011;454;53.254;10.400;2022-08-19T15:44:52;22.87;;;20.70;;
934;SDS011;454;53.254;10.400;2022-08-19T15:47:22;24.77;;;22.37;;
934;SDS011;454;53.254;10.400;2022-08-19T15:49:48;24.90;;;22.50;;
934;SDS011;454;53.254;10.400;2022-08-19T15:52:15;23.87;;;21.57;;
934;SDS011;454;53.254;10.400;2022-08-19T15:54:46;22.73;;;20.77;;
934;SDS011;454;53.254;10.400;2022-08-19T15:57:12;23.97;;;21.47;;
934;SDS011;454;53.254;10.400;2022-08-19T15:59:56;23.37;;;21.17;;
934;SDS011;454;53.254;10.400;2022-08-19T16:02:42;24.07;;;21.60;;
934;SDS011;454;53.254;10.400;2022-08-19T16:05:26;26.57;;;24.17;;
934;SDS011;454;53.254;10.400;2022-08-19T16:08:10;24.43;;;22.33;;
934;SDS011;454;53.254;10.400;2022-08-19T16:10:37;24.70;;;22.37;;
934;SDS011;454;53.254;10.400;2022-08-19T16:13:05;23.47;;;21.53;;
934;SDS011;454;53.254;10.400;2022-08-19T16:15:32;23.07;;;21.17;;
934;SDS011;454;53.254;10.400;2022-08-19T16:18:00;21.80;;;19.90;;
934;SDS011;454;53.254;10.400;2022-08-19T16:20:29;22.90;;;20.90;;
934;SDS011;454;53.254;10.400;2022-08-19T16:22:56;22.03;;;20.23;;
934;SDS011;454;53.254;10.400;2022-08-19T16:25:23;21.97;;;19.87;;
934;SDS011;454;53.254;10.400;2022-08-19T16:27:53;22.53;;;20.57;;
934;SDS011;454;53.254;10.400;2022-08-19T16:30:20;20.23;;;18.23;;
934;SDS011;454;53.254;10.400;2022-08-19T16:32:47;20.93;;;19.23;;
934;SDS011;454;53.254;10.400;2022-08-19T16:35:15;19.57;;;17.80;;
934;SDS011;454;53.254;10.400;2022-08-19T16:37:42;18.43;;;17.03;;
934;SDS011;454;53.254;10.400;2022-08-19T16:40:09;17.60;;;16.00;;
934;SDS011;454;53.254;10.400;2022-08-19T16:42:37;17.53;;;16.13;;
934;SDS011;454;53.254;10.400;2022-08-19T16:45:04;17.57;;;15.93;;
934;SDS011;454;53.254;10.400;2022-08-19T16:47:33;16.80;;;15.43;;
934;SDS011;454;53.254;10.400;2022-08-19T16:50:00;15.10;;;14.00;;
934;SDS011;454;53.254;10.400;2022-08-19T16:52:28;16.87;;;15.57;;
934;SDS011;454;53.254;10.400;2022-08-19T16:54:56;14.57;;;13.37;;
934;SDS011;454;53.254;10.400;2022-08-19T16:57:22;14.57;;;13.37;;
934;SDS011;454;53.254;10.400;2022-08-19T16:59:49;14.53;;;13.33;;
934;SDS011;454;53.254;10.400;2022-08-19T17:02:16;15.00;;;13.53;;
934;SDS011;454;53.254;10.400;2022-08-19T17:04:45;13.90;;;12.80;;
934;SDS011;454;53.254;10.400;2022-08-19T17:07:13;13.33;;;12.33;;
934;SDS011;454;53.254;10.400;2022-08-19T17:09:41;12.90;;;11.80;;
934;SDS011;454;53.254;10.400;2022-08-19T17:12:08;13.07;;;12.10;;
934;SDS011;454;53.254;10.400;2022-08-19T17:14:35;12.73;;;11.83;;
934;SDS011;454;53.254;10.400;2022-08-19T17:17:02;13.73;;;12.73;;
934;SDS011;454;53.254;10.400;2022-08-19T17:19:29;14.30;;;13.10;;
934;SDS011;454;53.254;10.400;2022-08-19T17:21:56;12.40;;;11.50;;
934;SDS011;454;53.254;10.400;2022-08-19T17:24:22;12.30;;;11.40;;
934;SDS011;454;53.254;10.400;2022-08-19T17:26:50;12.23;;;11.23;;
934;SDS011;454;53.254;10.400;2022-08-19T17:29:17;13.77;;;12.67;;
934;SDS011;454;53.254;10.400;2022-08-19T17:31:44;13.13;;;12.00;;
934;SDS011;454;53.254;10.400;2022-08-19T17:34:10;12.33;;;11.27;;
934;SDS011;454;53.254;10.400;2022-08-19T17:36:37;13.20;;;12.20;;
934;SDS011;454;53.254;10.400;2022-08-19T17:39:04;13.17;;;12.07;;
934;SDS011;454;53.254;10.400;2022-08-19T17:41:31;13.47;;;12.57;;
934;SDS011;454;53.254;10.400;2022-08-19T17:44:00;14.87;;;13.77;;
934;SDS011;454;53.254;10.400;2022-08-19T17:46:27;14.07;;;12.97;;
934;SDS011;454;53.254;10.400;2022-08-19T17:48:54;13.77;;;12.77;;
934;SDS011;454;53.254;10.400;2022-08-19T17:51:23;14.37;;;13.27;;
934;SDS011;454;53.254;10.400;2022-08-19T17:54:04;15.23;;;13.90;;
934;SDS011;454;53.254;10.400;2022-08-19T17:56:31;14.23;;;13.13;;
934;SDS011;454;53.254;10.400;2022-08-19T17:58:59;14.43;;;13.33;;
934;SDS011;454;53.254;10.400;2022-08-19T18:01:26;14.13;;;13.07;;
934;SDS011;454;53.254;10.400;2022-08-19T18:03:54;14.73;;;13.63;;
934;SDS011;454;53.254;10.400;2022-08-19T18:06:20;12.57;;;11.67;;
934;SDS011;454;53.254;10.400;2022-08-19T18:08:47;14.27;;;13.20;;
934;SDS011;454;53.254;10.400;2022-08-19T18:11:14;14.07;;;13.00;;
934;SDS011;454;53.254;10.400;2022-08-19T18:13:41;13.70;;;12.60;;
934;SDS011;454;53.254;10.400;2022-08-19T18:16:09;13.63;;;12.53;;
934;SDS011;454;53.254;10.400;2022-08-19T18:18:37;15.30;;;14.10;;
934;SDS011;454;53.254;10.400;2022-08-19T18:21:05;14.53;;;13.23;;
934;SDS011;454;53.254;10.400;2022-08-19T18:23:32;14.80;;;13.60;;
934;SDS011;454;53.254;10.400;2022-08-19T18:25:59;14.27;;;13.17;;
934;SDS011;454;53.254;10.400;2022-08-19T18:28:27;15.20;;;13.90;;
934;SDS011;454;53.254;10.400;2022-08-19T18:30:53;15.00;;;13.80;;
934;SDS011;454;53.254;10.400;2022-08-19T18:33:22;15.13;;;13.80;;
934;SDS011;454;53.254;10.400;2022-08-19T18:35:49;15.40;;;14.10;;
934;SDS011;454;53.254;10.400;2022-08-19T18:38:17;14.50;;;13.13;;
934;SDS011;454;53.254;10.400;2022-08-19T18:41:03;15.30;;;14.10;;
934;SDS011;454;53.254;10.400;2022-08-19T18:43:47;14.80;;;13.60;;
934;SDS011;454;53.254;10.400;2022-08-19T18:46:31;15.00;;;13.90;;
934;SDS011;454;53.254;10.400;2022-08-19T18:49:19;16.00;;;14.70;;
934;SDS011;454;53.254;10.400;2022-08-19T18:51:48;14.30;;;13.10;;
934;SDS011;454;53.254;10.400;2022-08-19T18:54:15;15.50;;;14.00;;
934;SDS011;454;53.254;10.400;2022-08-19T18:56:43;15.23;;;14.03;;
934;SDS011;454;53.254;10.400;2022-08-19T18:59:11;15.67;;;14.47;;
934;SDS011;454;53.254;10.400;2022-08-19T19:01:40;15.77;;;14.30;;
934;SDS011;454;53.254;10.400;2022-08-19T19:04:16;14.90;;;13.70;;
934;SDS011;454;53.254;10.400;2022-08-19T19:06:45;16.03;;;14.70;;
934;SDS011;454;53.254;10.400;2022-08-19T19:09:14;16.07;;;14.77;;
934;SDS011;454;53.254;10.400;2022-08-19T19:11:44;15.70;;;14.50;;